RYR3029 LEIB-LEBL
Flight info
| Callsign | RYR3029 |
|---|---|
| Flight time | 0h 35m |
| Altitude | 24000 |
| Route | EPAMA N856 MARTA |
| Aircraft | B738/M-SDE2E3FGHIRWXY/LB1 |
Departure
| Time | 2026-05-07 08:55 |
|---|---|
| Airport | Ibiza Airport (LEIB) |
Arrival
| Time | 2026-05-07 09:30 |
|---|---|
| Airport | Josep Tarradellas Barcelona-El Prat Airport (LEBL) |
| Time | Latitude | Longitude | Altitude | Speed | Heading |
|---|---|---|---|---|---|
| 2026-05-07 08:19 | 38.87616 | 1.37062 | 7 ft | 0 kts | 332° |
| 2026-05-07 08:46 | 38.87605 | 1.37069 | 9 ft | 4 kts | 328° |
| 2026-05-07 08:46 | 38.87584 | 1.37090 | 9 ft | 4 kts | 310° |
| 2026-05-07 08:47 | 38.87573 | 1.37118 | 10 ft | 4 kts | 266° |
| 2026-05-07 08:47 | 38.87575 | 1.37132 | 10 ft | 1 kts | 241° |
| 2026-05-07 08:49 | 38.87574 | 1.37130 | 10 ft | 1 kts | 241° |
| 2026-05-07 08:49 | 38.87561 | 1.37100 | 9 ft | 7 kts | 241° |
| 2026-05-07 08:49 | 38.87531 | 1.37025 | 7 ft | 12 kts | 243° |
| 2026-05-07 08:50 | 38.87487 | 1.36920 | 7 ft | 15 kts | 242° |
| 2026-05-07 08:50 | 38.87446 | 1.36823 | 8 ft | 10 kts | 238° |
| 2026-05-07 08:50 | 38.87388 | 1.36808 | 7 ft | 10 kts | 156° |
| 2026-05-07 08:50 | 38.87327 | 1.36846 | 7 ft | 10 kts | 153° |
| 2026-05-07 08:51 | 38.87271 | 1.36828 | 8 ft | 10 kts | 235° |
| 2026-05-07 08:51 | 38.87239 | 1.36750 | 9 ft | 10 kts | 243° |
| 2026-05-07 08:51 | 38.87201 | 1.36656 | 7 ft | 13 kts | 243° |
| 2026-05-07 08:51 | 38.87152 | 1.36535 | 7 ft | 17 kts | 242° |
| 2026-05-07 08:52 | 38.87091 | 1.36388 | 7 ft | 20 kts | 242° |
| 2026-05-07 08:52 | 38.87020 | 1.36216 | 7 ft | 23 kts | 242° |
| 2026-05-07 08:52 | 38.86941 | 1.36024 | 7 ft | 26 kts | 242° |
| 2026-05-07 08:52 | 38.86880 | 1.35878 | 7 ft | 18 kts | 242° |
| 2026-05-07 08:53 | 38.86838 | 1.35778 | 7 ft | 9 kts | 233° |
| 2026-05-07 08:53 | 38.86781 | 1.35773 | 7 ft | 9 kts | 152° |
| 2026-05-07 08:53 | 38.86742 | 1.35836 | 5 ft | 10 kts | 110° |
| 2026-05-07 08:53 | 38.86720 | 1.35922 | 6 ft | 10 kts | 93° |
| 2026-05-07 08:54 | 38.86743 | 1.36005 | 6 ft | 10 kts | 62° |
| 2026-05-07 08:54 | 38.86816 | 1.36180 | 4 ft | 51 kts | 62° |
| 2026-05-07 08:54 | 38.87099 | 1.36864 | 6 ft | 120 kts | 62° |
| 2026-05-07 08:54 | 38.87573 | 1.38009 | 223 ft | 158 kts | 63° |
| 2026-05-07 08:55 | 38.88037 | 1.39294 | 971 ft | 165 kts | 75° |
| 2026-05-07 08:55 | 38.88290 | 1.40775 | 1664 ft | 182 kts | 77° |
| 2026-05-07 08:55 | 38.88605 | 1.42454 | 2160 ft | 199 kts | 76° |
| 2026-05-07 08:55 | 38.88938 | 1.44183 | 2851 ft | 202 kts | 76° |
| 2026-05-07 08:56 | 38.89279 | 1.45960 | 3578 ft | 207 kts | 76° |
| 2026-05-07 08:56 | 38.89625 | 1.47779 | 4360 ft | 211 kts | 76° |
| 2026-05-07 08:56 | 38.89971 | 1.49597 | 5232 ft | 212 kts | 77° |
| 2026-05-07 08:56 | 38.90324 | 1.51454 | 6037 ft | 216 kts | 77° |
| 2026-05-07 08:57 | 38.90707 | 1.53332 | 6801 ft | 221 kts | 69° |
| 2026-05-07 08:57 | 38.91519 | 1.55056 | 7373 ft | 237 kts | 50° |
| 2026-05-07 08:57 | 38.92783 | 1.56623 | 7620 ft | 267 kts | 42° |
| 2026-05-07 08:57 | 38.94229 | 1.58214 | 8250 ft | 279 kts | 41° |
| 2026-05-07 08:58 | 38.95711 | 1.59859 | 9053 ft | 285 kts | 41° |
| 2026-05-07 08:58 | 38.97211 | 1.61558 | 9885 ft | 290 kts | 41° |
| 2026-05-07 08:58 | 38.98732 | 1.63299 | 10634 ft | 295 kts | 42° |
| 2026-05-07 08:58 | 39.00336 | 1.64878 | 11362 ft | 301 kts | 26° |
| 2026-05-07 08:59 | 39.02353 | 1.65598 | 12129 ft | 304 kts | 6° |
| 2026-05-07 08:59 | 39.04472 | 1.65870 | 12905 ft | 309 kts | 5° |
| 2026-05-07 08:59 | 39.06609 | 1.66130 | 13635 ft | 315 kts | 5° |
| 2026-05-07 08:59 | 39.08807 | 1.66374 | 14329 ft | 319 kts | 359° |
| 2026-05-07 09:00 | 39.10998 | 1.65858 | 14835 ft | 328 kts | 338° |
| 2026-05-07 09:00 | 39.13180 | 1.64700 | 15009 ft | 350 kts | 334° |
| 2026-05-07 09:00 | 39.15451 | 1.63394 | 15399 ft | 364 kts | 334° |
| 2026-05-07 09:00 | 39.17777 | 1.62041 | 16060 ft | 368 kts | 334° |
| 2026-05-07 09:01 | 39.20120 | 1.60689 | 16824 ft | 370 kts | 334° |
| 2026-05-07 09:01 | 39.22486 | 1.59338 | 17549 ft | 373 kts | 333° |
| 2026-05-07 09:01 | 39.24877 | 1.57982 | 18220 ft | 378 kts | 333° |
| 2026-05-07 09:01 | 39.27298 | 1.56616 | 18800 ft | 382 kts | 333° |
| 2026-05-07 09:02 | 39.29744 | 1.55240 | 19432 ft | 384 kts | 332° |
| 2026-05-07 09:02 | 39.32186 | 1.53869 | 20197 ft | 382 kts | 332° |
| 2026-05-07 09:02 | 39.34615 | 1.52506 | 21002 ft | 379 kts | 331° |
| 2026-05-07 09:02 | 39.37032 | 1.51148 | 21732 ft | 379 kts | 331° |
| 2026-05-07 09:03 | 39.39450 | 1.49786 | 22413 ft | 379 kts | 330° |
| 2026-05-07 09:03 | 39.41877 | 1.48418 | 23122 ft | 379 kts | 330° |
| 2026-05-07 09:03 | 39.44293 | 1.47056 | 23766 ft | 379 kts | 330° |
| 2026-05-07 09:03 | 39.46690 | 1.45702 | 23931 ft | 381 kts | 329° |
| 2026-05-07 09:04 | 39.49114 | 1.44333 | 23957 ft | 379 kts | 329° |
| 2026-05-07 09:04 | 39.51533 | 1.42966 | 23966 ft | 379 kts | 329° |
| 2026-05-07 09:04 | 39.53952 | 1.41598 | 23984 ft | 379 kts | 329° |
| 2026-05-07 09:04 | 39.56375 | 1.40226 | 23976 ft | 380 kts | 329° |
| 2026-05-07 09:05 | 39.58803 | 1.38850 | 23976 ft | 381 kts | 329° |
| 2026-05-07 09:05 | 39.61327 | 1.37739 | 23949 ft | 392 kts | 345° |
| 2026-05-07 09:05 | 39.64042 | 1.37331 | 23983 ft | 394 kts | 348° |
| 2026-05-07 09:05 | 39.66777 | 1.37007 | 23969 ft | 395 kts | 349° |
| 2026-05-07 09:06 | 39.69512 | 1.36695 | 23976 ft | 395 kts | 349° |
| 2026-05-07 09:06 | 39.72255 | 1.36374 | 23974 ft | 395 kts | 349° |
| 2026-05-07 09:06 | 39.74990 | 1.36040 | 23973 ft | 395 kts | 349° |
| 2026-05-07 09:06 | 39.77722 | 1.35695 | 23974 ft | 394 kts | 348° |
| 2026-05-07 09:07 | 39.80450 | 1.35342 | 23968 ft | 394 kts | 348° |
| 2026-05-07 09:07 | 39.83177 | 1.34984 | 23974 ft | 394 kts | 348° |
| 2026-05-07 09:07 | 39.85890 | 1.34627 | 23964 ft | 388 kts | 348° |
| 2026-05-07 09:07 | 39.88539 | 1.34280 | 23962 ft | 378 kts | 348° |
| 2026-05-07 09:08 | 39.91142 | 1.33937 | 23970 ft | 375 kts | 348° |
| 2026-05-07 09:08 | 39.93735 | 1.33591 | 23980 ft | 375 kts | 348° |
| 2026-05-07 09:08 | 39.96339 | 1.33241 | 23854 ft | 378 kts | 348° |
| 2026-05-07 09:08 | 39.98957 | 1.32890 | 23592 ft | 376 kts | 348° |
| 2026-05-07 09:09 | 40.01495 | 1.32552 | 23235 ft | 375 kts | 348° |
| 2026-05-07 09:09 | 40.04080 | 1.32208 | 22873 ft | 372 kts | 348° |
| 2026-05-07 09:09 | 40.06643 | 1.31867 | 22520 ft | 369 kts | 349° |
| 2026-05-07 09:09 | 40.09187 | 1.31528 | 22176 ft | 366 kts | 349° |
| 2026-05-07 09:10 | 40.11713 | 1.31191 | 21828 ft | 363 kts | 349° |
| 2026-05-07 09:10 | 40.14218 | 1.30856 | 21485 ft | 361 kts | 349° |
| 2026-05-07 09:10 | 40.16711 | 1.30523 | 21149 ft | 358 kts | 350° |
| 2026-05-07 09:10 | 40.19183 | 1.30192 | 20808 ft | 356 kts | 350° |
| 2026-05-07 09:11 | 40.21610 | 1.29866 | 20479 ft | 354 kts | 351° |
| 2026-05-07 09:11 | 40.24088 | 1.29534 | 20134 ft | 352 kts | 351° |
| 2026-05-07 09:11 | 40.26485 | 1.29212 | 19804 ft | 350 kts | 351° |
| 2026-05-07 09:11 | 40.28903 | 1.28887 | 19472 ft | 349 kts | 351° |
| 2026-05-07 09:12 | 40.31309 | 1.28564 | 19139 ft | 347 kts | 352° |
| 2026-05-07 09:12 | 40.33706 | 1.28242 | 18805 ft | 346 kts | 352° |
| 2026-05-07 09:12 | 40.36095 | 1.27921 | 18468 ft | 344 kts | 352° |
| 2026-05-07 09:12 | 40.38478 | 1.27598 | 18102 ft | 343 kts | 352° |
| 2026-05-07 09:13 | 40.40847 | 1.27277 | 17732 ft | 342 kts | 352° |
| 2026-05-07 09:13 | 40.43203 | 1.26957 | 17379 ft | 339 kts | 352° |
| 2026-05-07 09:13 | 40.45542 | 1.26639 | 17053 ft | 337 kts | 352° |
| 2026-05-07 09:13 | 40.47867 | 1.26322 | 16713 ft | 334 kts | 352° |
| 2026-05-07 09:14 | 40.50173 | 1.26008 | 16389 ft | 332 kts | 352° |
| 2026-05-07 09:14 | 40.52461 | 1.25697 | 16065 ft | 330 kts | 352° |
| 2026-05-07 09:14 | 40.54736 | 1.25386 | 15742 ft | 327 kts | 352° |
| 2026-05-07 09:14 | 40.56999 | 1.25077 | 15423 ft | 325 kts | 352° |
| 2026-05-07 09:15 | 40.59239 | 1.24771 | 15108 ft | 323 kts | 352° |
| 2026-05-07 09:15 | 40.61470 | 1.24466 | 14788 ft | 321 kts | 352° |
| 2026-05-07 09:15 | 40.63689 | 1.24163 | 14471 ft | 319 kts | 352° |
| 2026-05-07 09:15 | 40.65892 | 1.23862 | 14164 ft | 317 kts | 352° |
| 2026-05-07 09:16 | 40.68086 | 1.23561 | 13836 ft | 316 kts | 352° |
| 2026-05-07 09:16 | 40.70278 | 1.23452 | 13456 ft | 317 kts | 6° |
| 2026-05-07 09:16 | 40.72367 | 1.24307 | 13227 ft | 314 kts | 26° |
| 2026-05-07 09:16 | 40.74247 | 1.25726 | 12935 ft | 311 kts | 30° |
| 2026-05-07 09:17 | 40.76088 | 1.27219 | 12616 ft | 309 kts | 31° |
| 2026-05-07 09:17 | 40.77905 | 1.28714 | 12304 ft | 307 kts | 31° |
| 2026-05-07 09:17 | 40.79714 | 1.30196 | 11998 ft | 305 kts | 31° |
| 2026-05-07 09:17 | 40.81489 | 1.31643 | 11686 ft | 303 kts | 31° |
| 2026-05-07 09:18 | 40.83284 | 1.33098 | 11375 ft | 302 kts | 31° |
| 2026-05-07 09:18 | 40.85069 | 1.34541 | 11063 ft | 300 kts | 31° |
| 2026-05-07 09:18 | 40.86847 | 1.35975 | 10756 ft | 299 kts | 31° |
| 2026-05-07 09:18 | 40.88616 | 1.37400 | 10446 ft | 298 kts | 31° |
| 2026-05-07 09:19 | 40.90380 | 1.38821 | 10165 ft | 295 kts | 31° |
| 2026-05-07 09:19 | 40.92107 | 1.40213 | 9967 ft | 285 kts | 31° |
| 2026-05-07 09:19 | 40.93779 | 1.41560 | 9639 ft | 278 kts | 31° |
| 2026-05-07 09:19 | 40.95408 | 1.42874 | 9337 ft | 270 kts | 31° |
| 2026-05-07 09:20 | 40.96997 | 1.44156 | 9072 ft | 269 kts | 31° |
| 2026-05-07 09:20 | 40.98615 | 1.45461 | 8799 ft | 275 kts | 31° |
| 2026-05-07 09:20 | 41.00214 | 1.46752 | 8512 ft | 275 kts | 31° |
| 2026-05-07 09:20 | 41.01842 | 1.48068 | 8220 ft | 274 kts | 31° |
| 2026-05-07 09:21 | 41.03452 | 1.49370 | 8072 ft | 267 kts | 31° |
| 2026-05-07 09:21 | 41.05015 | 1.50635 | 7932 ft | 260 kts | 31° |
| 2026-05-07 09:21 | 41.06541 | 1.51870 | 7806 ft | 253 kts | 31° |
| 2026-05-07 09:21 | 41.08022 | 1.53069 | 7688 ft | 246 kts | 31° |
| 2026-05-07 09:22 | 41.09454 | 1.54229 | 7569 ft | 239 kts | 31° |
| 2026-05-07 09:22 | 41.10877 | 1.55382 | 7324 ft | 238 kts | 31° |
| 2026-05-07 09:22 | 41.12075 | 1.56865 | 7061 ft | 237 kts | 59° |
| 2026-05-07 09:22 | 41.12785 | 1.58820 | 6852 ft | 235 kts | 65° |
| 2026-05-07 09:23 | 41.13465 | 1.60792 | 6599 ft | 235 kts | 65° |
| 2026-05-07 09:23 | 41.14146 | 1.62759 | 6348 ft | 234 kts | 65° |
| 2026-05-07 09:23 | 41.14826 | 1.64720 | 6083 ft | 234 kts | 65° |
| 2026-05-07 09:23 | 41.15505 | 1.66677 | 5824 ft | 233 kts | 65° |
| 2026-05-07 09:24 | 41.16183 | 1.68628 | 5578 ft | 232 kts | 65° |
| 2026-05-07 09:24 | 41.16858 | 1.70572 | 5333 ft | 231 kts | 65° |
| 2026-05-07 09:24 | 41.17529 | 1.72508 | 5092 ft | 230 kts | 65° |
| 2026-05-07 09:24 | 41.18199 | 1.74438 | 4849 ft | 230 kts | 65° |
| 2026-05-07 09:25 | 41.18865 | 1.76360 | 4620 ft | 228 kts | 65° |
| 2026-05-07 09:25 | 41.19508 | 1.78217 | 4389 ft | 222 kts | 65° |
| 2026-05-07 09:25 | 41.20155 | 1.80046 | 4134 ft | 216 kts | 63° |
| 2026-05-07 09:25 | 41.20817 | 1.81787 | 4081 ft | 208 kts | 64° |
| 2026-05-07 09:26 | 41.21449 | 1.83557 | 3835 ft | 215 kts | 65° |
| 2026-05-07 09:26 | 41.22067 | 1.85360 | 3551 ft | 214 kts | 66° |
| 2026-05-07 09:26 | 41.22672 | 1.87142 | 3264 ft | 210 kts | 66° |
| 2026-05-07 09:26 | 41.23264 | 1.88891 | 2991 ft | 206 kts | 66° |
| 2026-05-07 09:27 | 41.23845 | 1.90608 | 2736 ft | 201 kts | 66° |
| 2026-05-07 09:27 | 41.24411 | 1.92275 | 2455 ft | 194 kts | 67° |
| 2026-05-07 09:27 | 41.25472 | 1.95398 | 1936 ft | 178 kts | 67° |
| 2026-05-07 09:28 | 41.25968 | 1.96858 | 1719 ft | 168 kts | 67° |
| 2026-05-07 09:28 | 41.26426 | 1.98207 | 1544 ft | 151 kts | 67° |
| 2026-05-07 09:28 | 41.26839 | 1.99421 | 1330 ft | 139 kts | 68° |
| 2026-05-07 09:28 | 41.27234 | 2.00583 | 1109 ft | 135 kts | 68° |
| 2026-05-07 09:29 | 41.27620 | 2.01721 | 942 ft | 138 kts | 68° |
| 2026-05-07 09:29 | 41.27882 | 2.02489 | 815 ft | 137 kts | 68° |
| 2026-05-07 09:29 | 41.28273 | 2.03636 | 634 ft | 135 kts | 68° |
| 2026-05-07 09:29 | 41.28657 | 2.04763 | 450 ft | 134 kts | 68° |
| 2026-05-07 09:30 | 41.29038 | 2.05885 | 235 ft | 133 kts | 66° |
| 2026-05-07 09:30 | 41.29409 | 2.06968 | 49 ft | 125 kts | 65° |
| 2026-05-07 09:30 | 41.29740 | 2.07941 | 16 ft | 98 kts | 65° |
| 2026-05-07 09:30 | 41.29959 | 2.08580 | 25 ft | 42 kts | 65° |
| 2026-05-07 09:31 | 41.30101 | 2.08785 | 19 ft | 24 kts | 37° |
| 2026-05-07 09:31 | 41.30228 | 2.08876 | 17 ft | 18 kts | 20° |
| 2026-05-07 09:31 | 41.30285 | 2.08810 | 18 ft | 12 kts | 253° |
| 2026-05-07 09:31 | 41.30251 | 2.08708 | 18 ft | 12 kts | 244° |
| 2026-05-07 09:32 | 41.30215 | 2.08609 | 18 ft | 12 kts | 246° |
| 2026-05-07 09:32 | 41.30182 | 2.08508 | 19 ft | 13 kts | 245° |
| 2026-05-07 09:32 | 41.30137 | 2.08378 | 21 ft | 18 kts | 245° |
| 2026-05-07 09:32 | 41.30078 | 2.08206 | 18 ft | 22 kts | 245° |
| 2026-05-07 09:33 | 41.30031 | 2.08069 | 17 ft | 12 kts | 245° |
| 2026-05-07 09:33 | 41.30057 | 2.07979 | 16 ft | 12 kts | 334° |
| 2026-05-07 09:33 | 41.30108 | 2.07931 | 17 ft | 8 kts | 295° |
| 2026-05-07 09:33 | 41.30099 | 2.07863 | 17 ft | 7 kts | 246° |
| 2026-05-07 09:34 | 41.30094 | 2.07805 | 18 ft | 7 kts | 297° |
| 2026-05-07 09:34 | 41.30124 | 2.07782 | 19 ft | 3 kts | 346° |
| 2026-05-07 09:34 | 41.30140 | 2.07779 | 20 ft | 2 kts | 353° |
| 2026-05-07 09:34 | 41.30150 | 2.07778 | 20 ft | 1 kts | 356° |
| 2026-05-07 09:35 | 41.30154 | 2.07778 | 20 ft | 0 kts | 356° |